sensor_id;sensor_type;location;lat;lon;timestamp;pressure;altitude;pressure_sealevel;temperature;humidity
65666;BME280;52365;47.464;18.976;2023-02-01T00:00:07;99831.00;;;4.52;73.71
65666;BME280;52365;47.464;18.976;2023-02-01T00:00:43;99830.16;;;4.55;73.68
65666;BME280;52365;47.464;18.976;2023-02-01T00:01:19;99827.50;;;4.55;73.35
65666;BME280;52365;47.464;18.976;2023-02-01T00:01:55;99824.97;;;4.48;73.06
65666;BME280;52365;47.464;18.976;2023-02-01T00:02:31;99836.25;;;4.56;73.11
65666;BME280;52365;47.464;18.976;2023-02-01T00:03:07;99837.91;;;4.90;72.61
65666;BME280;52365;47.464;18.976;2023-02-01T00:03:44;99834.75;;;4.95;71.72
65666;BME280;52365;47.464;18.976;2023-02-01T00:04:20;99828.22;;;4.96;71.23
65666;BME280;52365;47.464;18.976;2023-02-01T00:04:56;99827.34;;;4.83;71.10
65666;BME280;52365;47.464;18.976;2023-02-01T00:05:32;99832.28;;;4.84;71.32
65666;BME280;52365;47.464;18.976;2023-02-01T00:06:08;99833.66;;;4.92;71.11
65666;BME280;52365;47.464;18.976;2023-02-01T00:06:44;99826.78;;;4.91;70.81
65666;BME280;52365;47.464;18.976;2023-02-01T00:07:20;99833.66;;;4.92;70.58
65666;BME280;52365;47.464;18.976;2023-02-01T00:07:56;99840.75;;;4.99;70.50
65666;BME280;52365;47.464;18.976;2023-02-01T00:08:32;99835.09;;;4.97;70.43
65666;BME280;52365;47.464;18.976;2023-02-01T00:09:08;99830.69;;;4.87;70.60
65666;BME280;52365;47.464;18.976;2023-02-01T00:09:44;99831.69;;;4.76;70.86
65666;BME280;52365;47.464;18.976;2023-02-01T00:10:20;99829.19;;;5.05;70.59
65666;BME280;52365;47.464;18.976;2023-02-01T00:11:06;99830.50;;;4.97;70.31
65666;BME280;52365;47.464;18.976;2023-02-01T00:11:43;99833.25;;;4.94;70.46
65666;BME280;52365;47.464;18.976;2023-02-01T00:12:19;99825.03;;;5.21;70.16
65666;BME280;52365;47.464;18.976;2023-02-01T00:12:55;99827.97;;;5.10;69.80
65666;BME280;52365;47.464;18.976;2023-02-01T00:13:32;99815.09;;;5.05;70.00
65666;BME280;52365;47.464;18.976;2023-02-01T00:14:09;99823.97;;;5.18;69.94
65666;BME280;52365;47.464;18.976;2023-02-01T00:14:46;99825.53;;;5.16;69.49
65666;BME280;52365;47.464;18.976;2023-02-01T00:15:22;99818.03;;;4.91;69.76
65666;BME280;52365;47.464;18.976;2023-02-01T00:16:09;99817.78;;;4.85;69.97
65666;BME280;52365;47.464;18.976;2023-02-01T00:16:46;99813.66;;;5.00;69.99
65666;BME280;52365;47.464;18.976;2023-02-01T00:17:22;99828.91;;;5.00;69.78
65666;BME280;52365;47.464;18.976;2023-02-01T00:17:58;99826.78;;;4.91;70.00
65666;BME280;52365;47.464;18.976;2023-02-01T00:18:34;99820.88;;;4.64;70.76
65666;BME280;52365;47.464;18.976;2023-02-01T00:19:12;99819.00;;;4.61;71.15
65666;BME280;52365;47.464;18.976;2023-02-01T00:19:49;99815.72;;;4.73;71.16
65666;BME280;52365;47.464;18.976;2023-02-01T00:20:25;99809.63;;;4.72;70.95
65666;BME280;52365;47.464;18.976;2023-02-01T00:21:01;99806.78;;;4.99;70.59
65666;BME280;52365;47.464;18.976;2023-02-01T00:21:38;99811.19;;;4.90;70.06
65666;BME280;52365;47.464;18.976;2023-02-01T00:22:14;99810.56;;;5.02;69.76
65666;BME280;52365;47.464;18.976;2023-02-01T00:22:50;99820.44;;;5.05;69.47
65666;BME280;52365;47.464;18.976;2023-02-01T00:23:26;99824.41;;;4.97;69.43
65666;BME280;52365;47.464;18.976;2023-02-01T00:24:03;99822.31;;;4.88;69.68
65666;BME280;52365;47.464;18.976;2023-02-01T00:24:39;99826.13;;;4.87;69.83
65666;BME280;52365;47.464;18.976;2023-02-01T00:25:15;99825.09;;;5.01;70.07
65666;BME280;52365;47.464;18.976;2023-02-01T00:25:51;99823.28;;;5.14;69.68
65666;BME280;52365;47.464;18.976;2023-02-01T00:26:36;99820.81;;;5.23;69.60
65666;BME280;52365;47.464;18.976;2023-02-01T00:27:13;99824.66;;;5.39;69.41
65666;BME280;52365;47.464;18.976;2023-02-01T00:27:53;99829.81;;;5.29;68.81
65666;BME280;52365;47.464;18.976;2023-02-01T00:28:29;99830.88;;;5.16;68.86
65666;BME280;52365;47.464;18.976;2023-02-01T00:29:09;99833.22;;;5.14;69.28
65666;BME280;52365;47.464;18.976;2023-02-01T00:29:46;99832.53;;;5.10;69.65
65666;BME280;52365;47.464;18.976;2023-02-01T00:30:22;99824.78;;;5.15;69.60
65666;BME280;52365;47.464;18.976;2023-02-01T00:30:59;99820.06;;;5.03;69.78
65666;BME280;52365;47.464;18.976;2023-02-01T00:31:35;99822.75;;;5.03;70.17
65666;BME280;52365;47.464;18.976;2023-02-01T00:32:12;99819.19;;;5.10;70.15
65666;BME280;52365;47.464;18.976;2023-02-01T00:32:48;99818.09;;;5.07;69.90
65666;BME280;52365;47.464;18.976;2023-02-01T00:33:24;99812.59;;;5.14;69.57
65666;BME280;52365;47.464;18.976;2023-02-01T00:34:00;99817.28;;;5.26;69.26
65666;BME280;52365;47.464;18.976;2023-02-01T00:34:37;99820.88;;;5.20;68.77
65666;BME280;52365;47.464;18.976;2023-02-01T00:35:13;99822.94;;;5.12;68.84
65666;BME280;52365;47.464;18.976;2023-02-01T00:35:49;99818.78;;;5.11;69.16
65666;BME280;52365;47.464;18.976;2023-02-01T00:36:25;99828.69;;;5.11;69.60
65666;BME280;52365;47.464;18.976;2023-02-01T00:37:01;99823.09;;;5.41;69.17
65666;BME280;52365;47.464;18.976;2023-02-01T00:37:37;99825.50;;;5.36;68.88
65666;BME280;52365;47.464;18.976;2023-02-01T00:38:13;99824.66;;;5.22;68.90
65666;BME280;52365;47.464;18.976;2023-02-01T00:38:49;99824.16;;;5.44;68.35
65666;BME280;52365;47.464;18.976;2023-02-01T00:39:25;99828.50;;;5.38;67.83
65666;BME280;52365;47.464;18.976;2023-02-01T00:40:01;99818.53;;;5.22;67.98
65666;BME280;52365;47.464;18.976;2023-02-01T00:40:37;99817.78;;;5.21;68.00
65666;BME280;52365;47.464;18.976;2023-02-01T00:41:15;99820.94;;;5.16;68.04
65666;BME280;52365;47.464;18.976;2023-02-01T00:41:52;99819.75;;;5.37;67.80
65666;BME280;52365;47.464;18.976;2023-02-01T00:42:28;99832.28;;;5.56;66.93
65666;BME280;52365;47.464;18.976;2023-02-01T00:43:04;99831.03;;;5.45;66.51
65666;BME280;52365;47.464;18.976;2023-02-01T00:43:41;99831.66;;;5.33;66.86
65666;BME280;52365;47.464;18.976;2023-02-01T00:44:17;99828.94;;;5.36;66.99
65666;BME280;52365;47.464;18.976;2023-02-01T00:44:53;99827.34;;;5.55;66.74
65666;BME280;52365;47.464;18.976;2023-02-01T00:45:29;99830.94;;;5.48;66.78
65666;BME280;52365;47.464;18.976;2023-02-01T00:46:05;99839.03;;;5.45;66.95
65666;BME280;52365;47.464;18.976;2023-02-01T00:46:41;99824.25;;;5.40;67.32
65666;BME280;52365;47.464;18.976;2023-02-01T00:47:17;99829.69;;;5.53;67.25
65666;BME280;52365;47.464;18.976;2023-02-01T00:47:55;99826.69;;;5.51;67.24
65666;BME280;52365;47.464;18.976;2023-02-01T00:48:31;99822.88;;;5.16;68.25
65666;BME280;52365;47.464;18.976;2023-02-01T00:49:08;99810.22;;;5.36;68.48
65666;BME280;52365;47.464;18.976;2023-02-01T00:49:44;99811.47;;;5.48;68.09
65666;BME280;52365;47.464;18.976;2023-02-01T00:50:20;99809.87;;;5.50;67.89
65666;BME280;52365;47.464;18.976;2023-02-01T00:51:01;99818.06;;;5.43;67.87
65666;BME280;52365;47.464;18.976;2023-02-01T00:51:37;99819.94;;;5.26;67.68
65666;BME280;52365;47.464;18.976;2023-02-01T00:52:13;99816.97;;;5.24;68.07
65666;BME280;52365;47.464;18.976;2023-02-01T00:52:49;99829.81;;;5.29;68.22
65666;BME280;52365;47.464;18.976;2023-02-01T00:53:25;99818.87;;;5.24;68.33
65666;BME280;52365;47.464;18.976;2023-02-01T00:54:01;99820.13;;;5.19;68.45
65666;BME280;52365;47.464;18.976;2023-02-01T00:54:39;99820.88;;;5.20;68.12
65666;BME280;52365;47.464;18.976;2023-02-01T00:55:15;99823.13;;;5.21;68.16
65666;BME280;52365;47.464;18.976;2023-02-01T00:55:51;99826.81;;;5.27;68.24
65666;BME280;52365;47.464;18.976;2023-02-01T00:56:27;99819.31;;;5.22;67.88
65666;BME280;52365;47.464;18.976;2023-02-01T00:57:03;99818.87;;;5.24;68.00
65666;BME280;52365;47.464;18.976;2023-02-01T00:57:39;99819.19;;;5.26;68.11
65666;BME280;52365;47.464;18.976;2023-02-01T00:58:15;99821.97;;;5.22;68.30
65666;BME280;52365;47.464;18.976;2023-02-01T00:58:51;99818.94;;;5.20;68.43
65666;BME280;52365;47.464;18.976;2023-02-01T00:59:27;99826.97;;;5.20;68.65
65666;BME280;52365;47.464;18.976;2023-02-01T01:00:04;99819.13;;;5.29;68.65
65666;BME280;52365;47.464;18.976;2023-02-01T01:00:40;99827.38;;;5.19;68.97
65666;BME280;52365;47.464;18.976;2023-02-01T01:01:22;99818.13;;;5.23;69.11
65666;BME280;52365;47.464;18.976;2023-02-01T01:01:58;99806.19;;;5.28;69.24
65666;BME280;52365;47.464;18.976;2023-02-01T01:02:34;99811.31;;;5.55;68.73
65666;BME280;52365;47.464;18.976;2023-02-01T01:03:11;99805.13;;;5.74;68.08
65666;BME280;52365;47.464;18.976;2023-02-01T01:03:57;99804.53;;;5.83;67.37
65666;BME280;52365;47.464;18.976;2023-02-01T01:04:34;99802.03;;;5.60;67.32
65666;BME280;52365;47.464;18.976;2023-02-01T01:05:10;99799.78;;;5.74;67.44
65666;BME280;52365;47.464;18.976;2023-02-01T01:05:47;99803.78;;;5.82;67.16
65666;BME280;52365;47.464;18.976;2023-02-01T01:06:26;99797.25;;;5.84;66.87
65666;BME280;52365;47.464;18.976;2023-02-01T01:07:03;99796.44;;;5.54;67.01
65666;BME280;52365;47.464;18.976;2023-02-01T01:07:39;99795.09;;;5.46;67.66
65666;BME280;52365;47.464;18.976;2023-02-01T01:08:16;99795.78;;;5.50;67.86
65666;BME280;52365;47.464;18.976;2023-02-01T01:08:54;99800.34;;;5.33;67.86
65666;BME280;52365;47.464;18.976;2023-02-01T01:09:30;99801.19;;;5.46;68.09
65666;BME280;52365;47.464;18.976;2023-02-01T01:10:07;99799.78;;;5.58;67.47
65666;BME280;52365;47.464;18.976;2023-02-01T01:10:43;99800.28;;;5.37;67.04
65666;BME280;52365;47.464;18.976;2023-02-01T01:11:22;99802.03;;;5.43;67.13
65666;BME280;52365;47.464;18.976;2023-02-01T01:11:58;99805.78;;;5.29;67.14
65666;BME280;52365;47.464;18.976;2023-02-01T01:12:38;99793.66;;;5.74;66.77
65666;BME280;52365;47.464;18.976;2023-02-01T01:13:14;99795.09;;;5.78;65.61
65666;BME280;52365;47.464;18.976;2023-02-01T01:13:52;99788.75;;;5.89;65.50
65666;BME280;52365;47.464;18.976;2023-02-01T01:14:29;99793.75;;;5.87;65.23
65666;BME280;52365;47.464;18.976;2023-02-01T01:15:06;99790.00;;;5.68;65.57
65666;BME280;52365;47.464;18.976;2023-02-01T01:15:43;99781.75;;;5.46;65.89
65666;BME280;52365;47.464;18.976;2023-02-01T01:16:20;99782.75;;;5.36;66.36
65666;BME280;52365;47.464;18.976;2023-02-01T01:16:57;99787.00;;;5.33;66.71
65666;BME280;52365;47.464;18.976;2023-02-01T01:17:33;99780.37;;;5.21;66.89
65666;BME280;52365;47.464;18.976;2023-02-01T01:18:09;99775.88;;;5.18;67.08
65666;BME280;52365;47.464;18.976;2023-02-01T01:18:46;99771.56;;;5.41;67.11
65666;BME280;52365;47.464;18.976;2023-02-01T01:19:22;99769.88;;;5.63;66.04
65666;BME280;52365;47.464;18.976;2023-02-01T01:19:58;99754.34;;;5.58;65.70
65666;BME280;52365;47.464;18.976;2023-02-01T01:20:36;99765.13;;;5.38;66.26
65666;BME280;52365;47.464;18.976;2023-02-01T01:21:14;99758.28;;;5.53;66.15
65666;BME280;52365;47.464;18.976;2023-02-01T01:21:50;99756.31;;;5.70;65.83
65666;BME280;52365;47.464;18.976;2023-02-01T01:22:26;99754.47;;;5.84;64.83
65666;BME280;52365;47.464;18.976;2023-02-01T01:23:03;99749.72;;;5.75;64.66
65666;BME280;52365;47.464;18.976;2023-02-01T01:23:39;99755.34;;;5.48;64.92
65666;BME280;52365;47.464;18.976;2023-02-01T01:24:15;99749.66;;;5.29;66.07
65666;BME280;52365;47.464;18.976;2023-02-01T01:24:51;99759.75;;;5.38;66.22
65666;BME280;52365;47.464;18.976;2023-02-01T01:25:28;99759.34;;;5.56;65.96
65666;BME280;52365;47.464;18.976;2023-02-01T01:26:10;99758.50;;;5.43;66.27
65666;BME280;52365;47.464;18.976;2023-02-01T01:26:48;99754.50;;;5.51;66.00
65666;BME280;52365;47.464;18.976;2023-02-01T01:27:24;99745.94;;;5.89;65.31
65666;BME280;52365;47.464;18.976;2023-02-01T01:28:00;99750.50;;;5.59;64.79
65666;BME280;52365;47.464;18.976;2023-02-01T01:28:36;99756.09;;;5.48;64.96
65666;BME280;52365;47.464;18.976;2023-02-01T01:29:12;99757.34;;;5.27;65.86
65666;BME280;52365;47.464;18.976;2023-02-01T01:29:49;99749.22;;;5.31;66.20
65666;BME280;52365;47.464;18.976;2023-02-01T01:30:25;99754.94;;;5.49;66.15
65666;BME280;52365;47.464;18.976;2023-02-01T01:31:02;99750.19;;;5.41;65.73
65666;BME280;52365;47.464;18.976;2023-02-01T01:31:38;99746.25;;;5.29;65.64
65666;BME280;52365;47.464;18.976;2023-02-01T01:32:14;99749.75;;;5.10;65.89
65666;BME280;52365;47.464;18.976;2023-02-01T01:32:52;99746.41;;;5.05;66.47
65666;BME280;52365;47.464;18.976;2023-02-01T01:33:28;99742.37;;;4.97;66.29
65666;BME280;52365;47.464;18.976;2023-02-01T01:34:04;99744.41;;;5.10;66.48
65666;BME280;52365;47.464;18.976;2023-02-01T01:34:40;99735.47;;;5.16;66.74
65666;BME280;52365;47.464;18.976;2023-02-01T01:35:16;99740.16;;;5.28;66.11
65666;BME280;52365;47.464;18.976;2023-02-01T01:35:52;99744.13;;;5.04;66.48
65666;BME280;52365;47.464;18.976;2023-02-01T01:36:29;99744.44;;;4.90;67.10
65666;BME280;52365;47.464;18.976;2023-02-01T01:37:05;99735.38;;;4.67;67.81
65666;BME280;52365;47.464;18.976;2023-02-01T01:37:41;99737.44;;;4.60;68.43
65666;BME280;52365;47.464;18.976;2023-02-01T01:38:17;99746.84;;;4.48;69.12
65666;BME280;52365;47.464;18.976;2023-02-01T01:38:53;99750.50;;;4.34;69.82
65666;BME280;52365;47.464;18.976;2023-02-01T01:39:29;99745.66;;;4.49;69.78
65666;BME280;52365;47.464;18.976;2023-02-01T01:40:07;99747.38;;;4.39;69.72
65666;BME280;52365;47.464;18.976;2023-02-01T01:40:47;99740.75;;;4.27;69.93
65666;BME280;52365;47.464;18.976;2023-02-01T01:41:29;99745.81;;;4.22;70.37
65666;BME280;52365;47.464;18.976;2023-02-01T01:42:10;99743.75;;;4.29;70.72
65666;BME280;52365;47.464;18.976;2023-02-01T01:42:47;99744.38;;;4.57;70.18
65666;BME280;52365;47.464;18.976;2023-02-01T01:43:24;99745.06;;;4.77;69.32
65666;BME280;52365;47.464;18.976;2023-02-01T01:45:28;99745.56;;;4.72;67.65
65666;BME280;52365;47.464;18.976;2023-02-01T01:46:05;99741.91;;;4.26;69.02
65666;BME280;52365;47.464;18.976;2023-02-01T01:46:41;99751.47;;;3.81;70.76
65666;BME280;52365;47.464;18.976;2023-02-01T01:47:17;99751.44;;;3.61;71.87
65666;BME280;52365;47.464;18.976;2023-02-01T01:48:13;99751.34;;;3.64;72.27
65666;BME280;52365;47.464;18.976;2023-02-01T01:48:56;99732.72;;;3.41;72.86
65666;BME280;52365;47.464;18.976;2023-02-01T01:49:32;99740.84;;;3.57;73.38
65666;BME280;52365;47.464;18.976;2023-02-01T01:50:13;99741.31;;;3.52;73.46
65666;BME280;52365;47.464;18.976;2023-02-01T01:50:58;99746.72;;;3.68;73.35
65666;BME280;52365;47.464;18.976;2023-02-01T01:51:42;99752.19;;;3.85;72.92
65666;BME280;52365;47.464;18.976;2023-02-01T01:52:20;99764.87;;;3.77;72.62
65666;BME280;52365;47.464;18.976;2023-02-01T01:52:58;99764.47;;;3.78;72.92
65666;BME280;52365;47.464;18.976;2023-02-01T01:53:42;99753.94;;;3.48;73.16
65666;BME280;52365;47.464;18.976;2023-02-01T01:54:24;99751.06;;;3.35;73.76
65666;BME280;52365;47.464;18.976;2023-02-01T01:55:01;99750.19;;;3.42;73.98
65666;BME280;52365;47.464;18.976;2023-02-01T01:55:39;99751.91;;;3.79;73.66
65666;BME280;52365;47.464;18.976;2023-02-01T01:56:17;99741.47;;;4.08;72.49
65666;BME280;52365;47.464;18.976;2023-02-01T01:56:56;99753.03;;;4.21;71.57
65666;BME280;52365;47.464;18.976;2023-02-01T01:57:36;99752.13;;;4.08;71.02
65666;BME280;52365;47.464;18.976;2023-02-01T01:58:17;99758.63;;;3.87;71.45
65666;BME280;52365;47.464;18.976;2023-02-01T01:58:54;99751.78;;;3.63;72.29
65666;BME280;52365;47.464;18.976;2023-02-01T01:59:32;99741.31;;;3.52;72.85
65666;BME280;52365;47.464;18.976;2023-02-01T02:00:15;99747.41;;;3.96;72.58
65666;BME280;52365;47.464;18.976;2023-02-01T02:00:53;99743.28;;;3.48;72.71
65666;BME280;52365;47.464;18.976;2023-02-01T02:01:29;99742.44;;;3.51;73.10
65666;BME280;52365;47.464;18.976;2023-02-01T02:02:05;99741.69;;;3.50;73.25
65666;BME280;52365;47.464;18.976;2023-02-01T02:02:44;99738.16;;;3.34;73.60
65666;BME280;52365;47.464;18.976;2023-02-01T02:03:26;99747.19;;;3.40;73.80
65666;BME280;52365;47.464;18.976;2023-02-01T02:04:03;99739.53;;;3.42;73.99
65666;BME280;52365;47.464;18.976;2023-02-01T02:04:40;99737.56;;;3.46;73.92
65666;BME280;52365;47.464;18.976;2023-02-01T02:05:17;99742.09;;;3.49;73.81
65666;BME280;52365;47.464;18.976;2023-02-01T02:05:55;99736.19;;;3.38;73.75
65666;BME280;52365;47.464;18.976;2023-02-01T02:06:41;99745.31;;;3.13;74.40
65666;BME280;52365;47.464;18.976;2023-02-01T02:07:33;99742.94;;;3.19;74.80
65666;BME280;52365;47.464;18.976;2023-02-01T02:08:11;99746.28;;;3.50;74.53
65666;BME280;52365;47.464;18.976;2023-02-01T02:08:47;99746.12;;;3.61;73.83
65666;BME280;52365;47.464;18.976;2023-02-01T02:09:23;99746.12;;;3.61;73.51
65666;BME280;52365;47.464;18.976;2023-02-01T02:10:00;99751.50;;;3.57;73.42
65666;BME280;52365;47.464;18.976;2023-02-01T02:10:37;99748.16;;;3.26;73.67
65666;BME280;52365;47.464;18.976;2023-02-01T02:11:33;99744.72;;;3.52;73.59
65666;BME280;52365;47.464;18.976;2023-02-01T02:12:09;99743.13;;;3.55;73.43
65666;BME280;52365;47.464;18.976;2023-02-01T02:12:47;99743.72;;;3.66;72.96
65666;BME280;52365;47.464;18.976;2023-02-01T02:13:29;99736.16;;;3.65;72.60
65666;BME280;52365;47.464;18.976;2023-02-01T02:14:09;99743.72;;;3.66;72.56
65666;BME280;52365;47.464;18.976;2023-02-01T02:14:47;99736.16;;;3.65;72.53
65666;BME280;52365;47.464;18.976;2023-02-01T02:15:24;99743.50;;;3.57;72.73
65666;BME280;52365;47.464;18.976;2023-02-01T02:18:11;99738.34;;;3.70;72.56
65666;BME280;52365;47.464;18.976;2023-02-01T02:21:33;99739.81;;;3.94;71.55
65666;BME280;52365;47.464;18.976;2023-02-01T02:24:30;99734.16;;;4.12;70.47
65666;BME280;52365;47.464;18.976;2023-02-01T02:27:12;99731.50;;;4.12;69.54
65666;BME280;52365;47.464;18.976;2023-02-01T02:35:51;99719.31;;;4.51;67.82
65666;BME280;52365;47.464;18.976;2023-02-01T02:39:03;99717.25;;;4.59;67.19
65666;BME280;52365;47.464;18.976;2023-02-01T02:39:41;99726.63;;;4.67;66.96
65666;BME280;52365;47.464;18.976;2023-02-01T02:40:48;99718.06;;;4.55;66.81
65666;BME280;52365;47.464;18.976;2023-02-01T02:43:04;99714.50;;;5.15;64.99
65666;BME280;52365;47.464;18.976;2023-02-01T02:44:13;99723.06;;;4.90;65.54
65666;BME280;52365;47.464;18.976;2023-02-01T02:45:20;99718.47;;;4.90;65.92
65666;BME280;52365;47.464;18.976;2023-02-01T02:46:24;99729.69;;;5.01;65.10
65666;BME280;52365;47.464;18.976;2023-02-01T02:48:54;99716.91;;;5.09;65.02
65666;BME280;52365;47.464;18.976;2023-02-01T02:50:41;99727.06;;;4.82;65.64
65666;BME280;52365;47.464;18.976;2023-02-01T02:51:20;99719.22;;;4.74;66.90
65666;BME280;52365;47.464;18.976;2023-02-01T02:52:18;99721.88;;;4.74;66.34
65666;BME280;52365;47.464;18.976;2023-02-01T02:53:18;99716.56;;;4.74;66.01
65666;BME280;52365;47.464;18.976;2023-02-01T02:54:18;99712.81;;;4.52;66.63
65666;BME280;52365;47.464;18.976;2023-02-01T02:55:15;99724.44;;;4.42;67.26
65666;BME280;52365;47.464;18.976;2023-02-01T02:55:52;99720.41;;;4.34;67.47
65666;BME280;52365;47.464;18.976;2023-02-01T02:56:38;99718.44;;;4.74;66.99
65666;BME280;52365;47.464;18.976;2023-02-01T02:57:37;99708.06;;;5.12;65.27
65666;BME280;52365;47.464;18.976;2023-02-01T02:58:33;99720.50;;;5.02;65.12
65666;BME280;52365;47.464;18.976;2023-02-01T02:59:28;99716.72;;;4.47;66.22
65666;BME280;52365;47.464;18.976;2023-02-01T03:00:29;99712.56;;;4.99;65.89
65666;BME280;52365;47.464;18.976;2023-02-01T03:01:25;99703.06;;;5.47;64.15
65666;BME280;52365;47.464;18.976;2023-02-01T03:02:21;99709.41;;;4.88;64.75
65666;BME280;52365;47.464;18.976;2023-02-01T03:03:16;99710.97;;;4.85;65.47
65666;BME280;52365;47.464;18.976;2023-02-01T03:04:10;99707.56;;;5.17;64.76
65666;BME280;52365;47.464;18.976;2023-02-01T03:04:54;99716.44;;;5.14;64.52
65666;BME280;52365;47.464;18.976;2023-02-01T03:05:37;99708.62;;;5.52;63.73
65666;BME280;52365;47.464;18.976;2023-02-01T03:06:17;99710.72;;;4.96;64.17
65666;BME280;52365;47.464;18.976;2023-02-01T03:06:54;99714.06;;;5.00;64.86
65666;BME280;52365;47.464;18.976;2023-02-01T03:08:02;99711.75;;;5.18;64.47
65666;BME280;52365;47.464;18.976;2023-02-01T03:08:39;99705.72;;;5.47;63.56
65666;BME280;52365;47.464;18.976;2023-02-01T03:09:30;99705.75;;;5.14;63.27
65666;BME280;52365;47.464;18.976;2023-02-01T03:10:16;99706.38;;;4.86;65.24
65666;BME280;52365;47.464;18.976;2023-02-01T03:10:55;99702.47;;;4.90;64.89
65666;BME280;52365;47.464;18.976;2023-02-01T03:11:34;99710.50;;;4.34;66.12
65666;BME280;52365;47.464;18.976;2023-02-01T03:12:32;99714.06;;;4.08;67.38
65666;BME280;52365;47.464;18.976;2023-02-01T03:13:40;99704.81;;;4.12;68.16
65666;BME280;52365;47.464;18.976;2023-02-01T03:14:20;99711.41;;;4.64;67.56
65666;BME280;52365;47.464;18.976;2023-02-01T03:15:05;99710.38;;;4.77;66.62
65666;BME280;52365;47.464;18.976;2023-02-01T03:16:50;99711.37;;;4.47;67.21
65666;BME280;52365;47.464;18.976;2023-02-01T03:17:33;99706.53;;;4.22;67.40
65666;BME280;52365;47.464;18.976;2023-02-01T03:18:15;99707.97;;;4.27;68.25
65666;BME280;52365;47.464;18.976;2023-02-01T03:19:02;99710.25;;;4.65;67.62
65666;BME280;52365;47.464;18.976;2023-02-01T03:19:45;99723.03;;;4.17;68.13
65666;BME280;52365;47.464;18.976;2023-02-01T03:20:25;99718.91;;;4.33;68.35
65666;BME280;52365;47.464;18.976;2023-02-01T03:21:06;99713.94;;;4.35;68.10
65666;BME280;52365;47.464;18.976;2023-02-01T03:21:50;99718.00;;;4.59;67.77
65666;BME280;52365;47.464;18.976;2023-02-01T03:22:31;99711.56;;;4.93;66.92
65666;BME280;52365;47.464;18.976;2023-02-01T03:23:11;99717.66;;;4.93;66.37
65666;BME280;52365;47.464;18.976;2023-02-01T03:23:51;99717.31;;;4.75;66.51
65666;BME280;52365;47.464;18.976;2023-02-01T03:25:15;99721.72;;;4.82;66.49
65666;BME280;52365;47.464;18.976;2023-02-01T03:25:55;99717.06;;;4.86;66.43
65666;BME280;52365;47.464;18.976;2023-02-01T03:26:36;99709.94;;;5.32;65.49
65666;BME280;52365;47.464;18.976;2023-02-01T03:27:37;99713.00;;;5.14;65.22
65666;BME280;52365;47.464;18.976;2023-02-01T03:28:18;99705.38;;;4.96;65.63
65666;BME280;52365;47.464;18.976;2023-02-01T03:29:04;99714.06;;;5.00;65.77
65666;BME280;52365;47.464;18.976;2023-02-01T03:30:00;99708.81;;;4.96;65.86
65666;BME280;52365;47.464;18.976;2023-02-01T03:30:42;99714.22;;;4.76;66.17
65666;BME280;52365;47.464;18.976;2023-02-01T03:31:19;99704.56;;;4.99;66.17
65666;BME280;52365;47.464;18.976;2023-02-01T03:31:55;99716.16;;;4.92;65.91
65666;BME280;52365;47.464;18.976;2023-02-01T03:32:33;99717.09;;;5.02;65.66
65666;BME280;52365;47.464;18.976;2023-02-01T03:33:31;99718.66;;;4.99;65.59
65666;BME280;52365;47.464;18.976;2023-02-01T03:34:07;99717.00;;;5.22;65.30
65666;BME280;52365;47.464;18.976;2023-02-01T03:34:44;99716.34;;;5.01;65.40
65666;BME280;52365;47.464;18.976;2023-02-01T03:35:29;99718.59;;;5.03;65.58
65666;BME280;52365;47.464;18.976;2023-02-01T03:36:36;99717.94;;;5.15;65.46
65666;BME280;52365;47.464;18.976;2023-02-01T03:37:16;99708.91;;;5.09;65.50
65666;BME280;52365;47.464;18.976;2023-02-01T03:38:16;99706.91;;;5.13;65.25
65666;BME280;52365;47.464;18.976;2023-02-01T03:39:15;99704.16;;;5.00;65.60
65666;BME280;52365;47.464;18.976;2023-02-01T03:40:00;99709.06;;;5.02;65.79
65666;BME280;52365;47.464;18.976;2023-02-01T03:40:37;99704.06;;;5.20;65.57
65666;BME280;52365;47.464;18.976;2023-02-01T03:41:20;99707.84;;;5.23;65.27
65666;BME280;52365;47.464;18.976;2023-02-01T03:42:02;99698.31;;;5.38;65.03
65666;BME280;52365;47.464;18.976;2023-02-01T03:42:43;99692.22;;;5.38;65.00
65666;BME280;52365;47.464;18.976;2023-02-01T03:43:23;99702.00;;;5.28;64.65
65666;BME280;52365;47.464;18.976;2023-02-01T03:45:07;99702.56;;;5.19;64.98
65666;BME280;52365;47.464;18.976;2023-02-01T03:45:50;99694.13;;;4.88;65.73
65666;BME280;52365;47.464;18.976;2023-02-01T03:46:34;99700.62;;;5.03;65.74
65666;BME280;52365;47.464;18.976;2023-02-01T03:47:18;99692.38;;;4.98;65.48
65666;BME280;52365;47.464;18.976;2023-02-01T03:47:58;99689.72;;;4.98;65.95
65666;BME280;52365;47.464;18.976;2023-02-01T03:48:37;99697.22;;;5.19;65.35
65666;BME280;52365;47.464;18.976;2023-02-01T03:49:19;99693.66;;;5.10;65.18
65666;BME280;52365;47.464;18.976;2023-02-01T03:50:43;99693.38;;;5.20;65.24
65666;BME280;52365;47.464;18.976;2023-02-01T03:51:03;99696.87;;;5.34;64.92
65666;BME280;52365;47.464;18.976;2023-02-01T03:51:41;99700.22;;;5.21;64.36
65666;BME280;52365;47.464;18.976;2023-02-01T03:52:25;99704.16;;;5.17;64.60
65666;BME280;52365;47.464;18.976;2023-02-01T03:53:09;99688.19;;;5.29;64.62
65666;BME280;52365;47.464;18.976;2023-02-01T03:53:48;99691.69;;;5.43;64.17
65666;BME280;52365;47.464;18.976;2023-02-01T03:54:27;99695.97;;;5.40;63.96
65666;BME280;52365;47.464;18.976;2023-02-01T03:55:05;99697.03;;;5.26;64.27
65666;BME280;52365;47.464;18.976;2023-02-01T03:55:42;99690.13;;;5.29;64.33
65666;BME280;52365;47.464;18.976;2023-02-01T03:56:21;99695.72;;;5.18;64.73
65666;BME280;52365;47.464;18.976;2023-02-01T03:57:01;99695.72;;;5.18;64.85
65666;BME280;52365;47.464;18.976;2023-02-01T03:57:46;99693.47;;;5.17;64.85
65666;BME280;52365;47.464;18.976;2023-02-01T03:58:24;99691.97;;;5.16;64.84
65666;BME280;52365;47.464;18.976;2023-02-01T03:59:00;99696.41;;;5.22;64.91
65666;BME280;52365;47.464;18.976;2023-02-01T03:59:44;99694.06;;;5.41;64.46
65666;BME280;52365;47.464;18.976;2023-02-01T04:00:23;99700.97;;;5.22;64.46
65666;BME280;52365;47.464;18.976;2023-02-01T04:01:00;99698.22;;;5.09;64.73